Whiting Field Naval Air Station north Airport Milton US
ICAO: KNSE
IATA: NSE
Category: Medium
Scheduled Services: No

Elevation: 199 ft
TransAlt. 18000 ft.

Airport Communications:
PENSACOLA APP/DEP:127.35
ATIS:29.032
CLNC DEL:25.777
GND:25.115
BASE OPS:23.37
PMSV METRO:31.695
TWR:121.4

KNSE Zoom In..

Runways:

(A) RW 05 length 6002 ft width 200 ft
---- / hdg 49

(B) RW 14 length 6002 ft width 200 ft
ILS 111.75 / hdg 139

(C) RW 23 length 6002 ft width 200 ft
---- / hdg 229

(D) RW 32 length 6002 ft width 200 ft
---- / hdg 319

Location; KNSE
Day. 25 / Time. 12.56 Zulu
* Altimeter: 30.13
* Temperature: 16° c. 60.8°f.
* Wind from: 120° Speed 05 kn.
Dewpoint: 16° c.
Visibility: 9 Statute Miles.
Clouds: Broken 500 ft.
Clouds: Broken 4100 ft.

KNSE 251256Z 12005KT 9SM BKN005 BKN041 16/16 A3013 RMK AO2 SLP191 T01610156 $

Going to: --> -->


Wind From 120°
Speed 05 kn.

 
 
jpsmedia worldairports.se 2020   terms of use